Terminal Aerodrome Forecast
Issued by NWS

Current Version | Previous Version | Graphics & Text | Print | Product List | Glossary On
Versions: 1 2 3 4 5 6 7 8 9 10 11 12 13 14 15 16 17 18 19 20 21 22 23 24 25 26
000
FTUS41 KILN 040900 AAA
TAFLUK
TAF AMD
KLUK 040911Z 0409/0506 33004KT 4SM -RA BR BKN022 OVC050
      TEMPO 0409/0412 SCT022 OVC050
     FM041200 34006KT 5SM -RA BR BKN020 OVC035
     FM041700 33008KT 3SM -RAPL BR SCT008 OVC018
     FM041900 33010KT 1SM -SN OVC008
     FM050100 35011KT 3SM -SN OVC012=

USA.gov is the U.S. government's official web portal to all federal, state and local government web resources and services.